Time;durP1;ratioP1;P1;durP2;ratioP2;P2;SDS_P1;SDS_P2;PMS_P1;PMS_P2;Temp;Humidity;BMP_temperature;BMP_pressure;BME280_temperature;BME280_humidity;BME280_pressure;Samples;Min_cycle;Max_cycle;Signal;HPM_P1;HPM_P2
2023/12/16 05:01:45;;;;;;;4.28;2.58;;;7.20;99.90;;;;;;5293399;23;20663;-73
2023/12/16 05:04:11;;;;;;;7.13;3.17;;;7.30;99.90;;;;;;4941916;28;20216;-73
2023/12/16 05:06:38;;;;;;;6.97;3.30;;;7.20;99.90;;;;;;4936586;28;21940;-73
2023/12/16 05:09:08;;;;;;;5.07;3.28;;;7.20;99.90;;;;;;4944405;29;20224;-73
2023/12/16 05:11:35;;;;;;;4.82;3.15;;;7.20;99.90;;;;;;4933492;29;20230;-73
2023/12/16 05:14:02;;;;;;;3.80;3.53;;;7.20;99.90;;;;;;4932368;29;20549;-72
2023/12/16 05:16:29;;;;;;;10.57;2.80;;;7.20;99.90;;;;;;4930796;29;20664;-73
2023/12/16 05:18:59;;;;;;;4.03;1.70;;;7.20;99.90;;;;;;4931036;29;20224;-73
2023/12/16 05:21:26;;;;;;;2.50;2.15;;;7.20;99.90;;;;;;4930337;29;20261;-73
2023/12/16 05:23:52;;;;;;;2.47;2.28;;;7.20;99.90;;;;;;4933218;29;20214;-73
2023/12/16 05:26:21;;;;;;;6.05;2.75;;;7.20;99.90;;;;;;4931345;29;20202;-73
2023/12/16 05:28:47;;;;;;;6.60;2.00;;;7.20;99.90;;;;;;4933169;29;20206;-73
2023/12/16 05:31:14;;;;;;;6.53;2.95;;;7.20;99.90;;;;;;4930790;29;20233;-73
2023/12/16 05:33:43;;;;;;;5.80;2.80;;;7.20;99.90;;;;;;4926382;29;20301;-73
2023/12/16 05:36:11;;;;;;;6.68;2.15;;;7.10;99.90;;;;;;4930198;29;20218;-72
2023/12/16 05:38:38;;;;;;;2.42;2.22;;;7.10;99.90;;;;;;4930772;29;20210;-73
2023/12/16 05:41:06;;;;;;;2.60;2.45;;;7.10;99.90;;;;;;4932681;29;20234;-73
2023/12/16 05:43:32;;;;;;;2.85;2.08;;;7.10;99.90;;;;;;4935767;29;20236;-73
2023/12/16 05:45:59;;;;;;;2.97;1.90;;;7.10;99.90;;;;;;4935866;29;20221;-73
2023/12/16 05:48:26;;;;;;;4.43;2.78;;;7.10;99.90;;;;;;4935237;29;20220;-73
2023/12/16 05:50:53;;;;;;;5.55;2.22;;;7.10;99.90;;;;;;4934996;29;20230;-73
2023/12/16 05:53:21;;;;;;;5.75;3.08;;;7.10;99.90;;;;;;4933857;29;20210;-72
2023/12/16 05:55:47;;;;;;;2.38;2.20;;;7.10;99.90;;;;;;4935543;29;20214;-73
2023/12/16 05:58:14;;;;;;;8.98;3.10;;;7.10;99.90;;;;;;4935261;29;20526;-72
2023/12/16 06:00:41;;;;;;;2.85;2.75;;;7.20;99.90;;;;;;4934737;29;20229;-73
2023/12/16 06:03:07;;;;;;;4.43;2.05;;;7.20;99.90;;;;;;4933791;29;20217;-73
2023/12/16 06:05:34;;;;;;;5.05;2.50;;;7.20;99.90;;;;;;4932424;29;20598;-73
2023/12/16 06:08:01;;;;;;;2.20;2.10;;;7.20;99.90;;;;;;4934188;29;20221;-73
2023/12/16 06:10:29;;;;;;;3.42;2.78;;;7.20;99.90;;;;;;4933792;29;20206;-73
2023/12/16 06:12:56;;;;;;;10.48;2.55;;;7.20;99.90;;;;;;4934714;29;20206;-73
2023/12/16 06:15:22;;;;;;;3.15;1.38;;;7.20;99.90;;;;;;4938106;29;20661;-73
2023/12/16 06:17:49;;;;;;;3.03;1.83;;;7.20;99.90;;;;;;4938141;29;20210;-73
2023/12/16 06:20:16;;;;;;;2.28;2.08;;;7.20;99.90;;;;;;4933721;29;20225;-72
2023/12/16 06:22:43;;;;;;;1.42;1.42;;;7.20;99.90;;;;;;4935244;29;20657;-73
2023/12/16 06:25:10;;;;;;;3.60;2.05;;;7.20;99.90;;;;;;4935017;29;20202;-72
2023/12/16 06:27:40;;;;;;;9.05;2.33;;;7.10;99.90;;;;;;4935146;29;20221;-73
2023/12/16 06:30:10;;;;;;;6.90;1.80;;;7.10;99.90;;;;;;4934355;29;20225;-73
2023/12/16 06:32:36;;;;;;;2.67;2.15;;;7.10;99.90;;;;;;4935440;29;20205;-71
2023/12/16 06:35:03;;;;;;;5.05;2.20;;;7.20;99.90;;;;;;4927421;29;20213;-71
2023/12/16 06:37:30;;;;;;;6.30;2.10;;;7.20;99.90;;;;;;4931497;29;20228;-71
2023/12/16 06:39:57;;;;;;;2.92;2.13;;;7.10;99.90;;;;;;4933713;29;20244;-71
2023/12/16 06:42:23;;;;;;;1.77;1.77;;;7.20;99.90;;;;;;4933345;29;20237;-71
2023/12/16 06:44:51;;;;;;;2.10;2.00;;;7.20;99.90;;;;;;4933506;29;20213;-71
2023/12/16 06:47:18;;;;;;;5.35;2.50;;;7.10;99.90;;;;;;4934079;29;20692;-72
2023/12/16 06:49:45;;;;;;;6.60;2.28;;;7.20;99.90;;;;;;4931480;29;20210;-72
2023/12/16 06:52:12;;;;;;;2.40;2.20;;;7.20;99.90;;;;;;4933504;29;20241;-71
2023/12/16 06:54:38;;;;;;;6.72;1.83;;;7.20;99.90;;;;;;4933546;29;20216;-72
2023/12/16 06:57:05;;;;;;;3.25;1.85;;;7.20;99.90;;;;;;4933367;29;20218;-72
2023/12/16 06:59:32;;;;;;;4.75;2.60;;;7.10;99.90;;;;;;4933171;29;20278;-71
2023/12/16 07:02:00;;;;;;;2.13;1.85;;;7.10;99.90;;;;;;4925937;29;20232;-71
2023/12/16 07:04:27;;;;;;;1.80;1.80;;;7.00;99.90;;;;;;4932607;29;20297;-71
2023/12/16 07:06:53;;;;;;;2.45;2.25;;;7.00;99.90;;;;;;4931779;29;20214;-71
2023/12/16 07:09:20;;;;;;;2.75;2.70;;;7.00;99.90;;;;;;4934715;29;20210;-71
2023/12/16 07:11:47;;;;;;;8.38;1.83;;;6.90;99.90;;;;;;4932245;29;20221;-71
2023/12/16 07:14:13;;;;;;;3.25;2.08;;;6.90;99.90;;;;;;4934504;29;20210;-71
2023/12/16 07:16:40;;;;;;;3.80;1.80;;;6.90;99.90;;;;;;4930941;29;20209;-72
2023/12/16 07:19:08;;;;;;;3.40;2.17;;;6.80;99.90;;;;;;4932239;29;20213;-73
2023/12/16 07:21:35;;;;;;;2.67;2.33;;;6.80;99.90;;;;;;4933073;29;20246;-72
2023/12/16 07:24:02;;;;;;;5.40;2.00;;;6.90;99.90;;;;;;4934604;29;20229;-72
2023/12/16 07:26:28;;;;;;;2.85;2.33;;;6.90;99.90;;;;;;4928712;29;20839;-72
2023/12/16 07:28:55;;;;;;;4.85;2.70;;;6.90;99.90;;;;;;4933331;29;21698;-72
2023/12/16 07:31:22;;;;;;;4.68;2.25;;;6.90;99.90;;;;;;4927657;29;20240;-71
2023/12/16 07:33:49;;;;;;;1.50;1.40;;;6.80;99.90;;;;;;4929590;29;20209;-71
2023/12/16 07:36:18;;;;;;;3.83;2.30;;;6.80;99.90;;;;;;4929418;29;20221;-71
2023/12/16 07:38:45;;;;;;;2.10;1.90;;;6.80;99.90;;;;;;4928650;29;20215;-71
2023/12/16 07:41:14;;;;;;;2.75;1.85;;;6.90;99.90;;;;;;4926786;29;20328;-71
2023/12/16 07:43:41;;;;;;;2.17;1.98;;;6.90;99.90;;;;;;4932090;29;20853;-71
2023/12/16 07:46:08;;;;;;;5.25;2.05;;;6.90;99.90;;;;;;4932458;29;20683;-71
2023/12/16 07:48:35;;;;;;;2.70;2.60;;;6.90;99.90;;;;;;4932410;29;20248;-71
2023/12/16 07:51:01;;;;;;;8.73;2.20;;;6.90;99.90;;;;;;4932608;29;20229;-71
2023/12/16 07:53:29;;;;;;;2.05;1.83;;;6.90;99.90;;;;;;4931493;29;20201;-71
2023/12/16 07:55:56;;;;;;;2.63;1.52;;;6.90;99.90;;;;;;4931880;29;20202;-71
2023/12/16 07:58:23;;;;;;;2.35;1.98;;;7.00;99.90;;;;;;4930078;29;20213;-71
2023/12/16 08:00:50;;;;;;;5.07;1.77;;;7.00;99.90;;;;;;4930354;29;20240;-71
2023/12/16 08:03:16;;;;;;;4.60;1.77;;;7.10;99.90;;;;;;4932085;29;20216;-72
2023/12/16 08:05:43;;;;;;;1.33;1.20;;;7.20;99.90;;;;;;4924211;29;20209;-71
2023/12/16 08:08:10;;;;;;;5.15;1.95;;;7.20;99.90;;;;;;4931383;29;20211;-72
2023/12/16 08:10:38;;;;;;;1.90;1.83;;;7.30;99.90;;;;;;4930552;29;20596;-72
2023/12/16 08:13:05;;;;;;;2.20;1.33;;;7.30;99.90;;;;;;4932028;29;20213;-72
2023/12/16 08:15:32;;;;;;;3.15;2.03;;;7.30;99.90;;;;;;4932080;29;20246;-72
2023/12/16 08:17:58;;;;;;;3.22;1.63;;;7.30;99.90;;;;;;4926283;29;20674;-74
2023/12/16 08:20:25;;;;;;;6.50;2.38;;;7.30;99.90;;;;;;4934980;29;20202;-72
2023/12/16 08:22:52;;;;;;;1.90;1.80;;;7.40;99.90;;;;;;4934358;29;20216;-73
2023/12/16 08:25:18;;;;;;;7.20;2.33;;;7.40;99.90;;;;;;4933605;29;20210;-73
2023/12/16 08:27:47;;;;;;;3.28;1.67;;;7.40;99.90;;;;;;4928184;29;20206;-73
2023/12/16 08:30:14;;;;;;;4.00;1.83;;;7.50;99.90;;;;;;4932705;29;20313;-73
2023/12/16 08:32:41;;;;;;;2.80;2.10;;;7.50;99.90;;;;;;4935399;29;20232;-72
2023/12/16 08:35:08;;;;;;;2.72;1.77;;;7.50;99.90;;;;;;4935304;29;20206;-72
2023/12/16 08:37:36;;;;;;;1.77;1.67;;;7.50;99.90;;;;;;4933903;29;20217;-71
2023/12/16 08:40:03;;;;;;;2.10;1.70;;;7.70;99.90;;;;;;4931886;29;20304;-74
2023/12/16 08:42:30;;;;;;;6.03;2.00;;;7.70;99.90;;;;;;4930382;29;20257;-73
2023/12/16 08:44:58;;;;;;;2.88;2.42;;;7.70;99.90;;;;;;4932513;29;20209;-72
2023/12/16 08:47:25;;;;;;;6.07;2.63;;;7.70;99.90;;;;;;4931996;29;20229;-73
2023/12/16 08:49:52;;;;;;;2.20;2.10;;;7.70;99.90;;;;;;4932467;29;20286;-72
2023/12/16 08:52:18;;;;;;;2.58;2.38;;;7.70;99.90;;;;;;4932609;29;20237;-74
2023/12/16 08:54:45;;;;;;;4.80;1.90;;;7.70;99.90;;;;;;4931402;29;20207;-73
2023/12/16 08:57:12;;;;;;;2.70;2.50;;;7.80;99.90;;;;;;4931281;29;20296;-74
2023/12/16 08:59:39;;;;;;;3.10;2.63;;;7.80;99.90;;;;;;4930548;29;20217;-74
2023/12/16 09:02:07;;;;;;;4.40;1.75;;;7.90;99.90;;;;;;4932475;29;20320;-74
2023/12/16 09:04:34;;;;;;;2.08;1.75;;;7.90;99.90;;;;;;4929781;29;20234;-74
2023/12/16 09:07:01;;;;;;;5.63;2.47;;;8.00;99.90;;;;;;4925714;29;20211;-73
2023/12/16 09:09:27;;;;;;;10.48;3.08;;;8.00;99.90;;;;;;4926107;29;20233;-74
2023/12/16 09:11:54;;;;;;;2.22;1.98;;;8.00;99.90;;;;;;4928038;29;20227;-74
2023/12/16 09:14:21;;;;;;;8.73;1.75;;;8.00;99.90;;;;;;4930273;29;20206;-74
2023/12/16 09:16:48;;;;;;;4.70;2.05;;;8.00;99.90;;;;;;4927194;29;20610;-74
2023/12/16 09:19:16;;;;;;;5.85;2.50;;;8.00;99.90;;;;;;4936325;29;20218;-74
2023/12/16 09:21:43;;;;;;;6.10;2.13;;;8.00;99.90;;;;;;4934954;29;20889;-75
2023/12/16 09:24:10;;;;;;;4.35;2.60;;;8.00;99.90;;;;;;4933095;29;20222;-74
2023/12/16 09:26:37;;;;;;;6.05;2.70;;;8.10;99.90;;;;;;4931599;29;20204;-74
2023/12/16 09:29:05;;;;;;;2.50;2.40;;;8.10;99.90;;;;;;4930975;29;20612;-74
2023/12/16 09:31:32;;;;;;;2.65;2.22;;;8.10;99.90;;;;;;4926441;29;20241;-74
2023/12/16 09:33:59;;;;;;;3.38;2.63;;;8.10;99.90;;;;;;4932500;29;20211;-74
2023/12/16 09:36:27;;;;;;;3.95;2.47;;;8.10;99.90;;;;;;4934002;29;20207;-74
2023/12/16 09:38:54;;;;;;;7.05;2.70;;;8.10;99.90;;;;;;4935807;29;20627;-74
2023/12/16 09:41:23;;;;;;;6.85;2.67;;;8.10;99.90;;;;;;4933520;29;20282;-74
2023/12/16 09:43:52;;;;;;;4.10;2.97;;;8.20;99.90;;;;;;4933271;29;20572;-75
2023/12/16 09:46:21;;;;;;;4.03;2.53;;;8.20;99.90;;;;;;4933300;29;20204;-74
2023/12/16 09:48:48;;;;;;;6.22;2.15;;;8.20;99.90;;;;;;4933618;29;20215;-74
2023/12/16 09:51:14;;;;;;;3.92;2.05;;;8.20;99.90;;;;;;4935472;29;20222;-74
2023/12/16 09:53:43;;;;;;;2.70;2.50;;;8.20;99.90;;;;;;4933434;29;20240;-73
2023/12/16 09:56:11;;;;;;;3.17;2.65;;;8.20;99.90;;;;;;4935188;29;20221;-75
2023/12/16 09:58:42;;;;;;;8.85;2.78;;;8.20;99.90;;;;;;4934542;29;20258;-75
2023/12/16 10:01:09;;;;;;;2.60;2.22;;;8.20;99.90;;;;;;4934539;29;20238;-75
2023/12/16 10:03:37;;;;;;;4.65;2.25;;;8.20;99.90;;;;;;4934861;29;20211;-74
2023/12/16 10:06:06;;;;;;;7.18;3.25;;;8.30;99.90;;;;;;4929595;29;20214;-74
2023/12/16 10:08:33;;;;;;;6.88;3.05;;;8.20;99.90;;;;;;4935087;29;20211;-74
2023/12/16 10:11:02;;;;;;;4.55;3.17;;;8.20;99.90;;;;;;4930422;29;20905;-74
2023/12/16 10:13:29;;;;;;;5.63;2.88;;;8.20;99.90;;;;;;4933141;29;20206;-74
2023/12/16 10:15:56;;;;;;;8.05;2.90;;;8.20;99.90;;;;;;4934489;29;20202;-74
2023/12/16 10:18:23;;;;;;;6.63;3.20;;;8.30;99.90;;;;;;4933259;29;20577;-75
2023/12/16 10:20:50;;;;;;;5.50;2.30;;;8.20;99.90;;;;;;4931198;29;20226;-75
2023/12/16 10:23:17;;;;;;;3.47;3.00;;;8.30;99.90;;;;;;4932001;29;20210;-74
2023/12/16 10:25:44;;;;;;;6.55;3.80;;;8.30;99.90;;;;;;4933452;29;20214;-74
2023/12/16 10:28:12;;;;;;;4.90;3.78;;;8.20;99.90;;;;;;4930302;29;20218;-75
2023/12/16 10:30:39;;;;;;;4.95;3.70;;;8.20;99.90;;;;;;4932066;29;20230;-74
2023/12/16 10:33:08;;;;;;;3.42;3.17;;;8.20;99.90;;;;;;4935036;29;20259;-74
2023/12/16 10:35:36;;;;;;;12.30;3.42;;;8.20;99.90;;;;;;4933968;29;20225;-74
2023/12/16 10:38:04;;;;;;;5.75;3.45;;;8.20;99.90;;;;;;4934584;29;20611;-74
2023/12/16 10:40:33;;;;;;;4.05;2.70;;;8.20;99.90;;;;;;4931445;29;20229;-74
2023/12/16 10:43:02;;;;;;;7.10;3.58;;;8.20;99.90;;;;;;4930330;29;20235;-74
2023/12/16 10:45:30;;;;;;;8.27;3.00;;;8.20;99.90;;;;;;4934289;29;20314;-74
2023/12/16 10:48:01;;;;;;;6.07;4.00;;;8.20;99.90;;;;;;4933204;29;20670;-75
2023/12/16 10:50:31;;;;;;;4.03;3.25;;;8.20;99.90;;;;;;4932035;29;20230;-74
2023/12/16 10:52:59;;;;;;;4.72;3.08;;;8.20;99.90;;;;;;4931240;29;20307;-74
2023/12/16 10:55:31;;;;;;;4.07;3.65;;;8.20;99.90;;;;;;4932878;29;20212;-74
2023/12/16 10:58:08;;;;;;;5.97;4.28;;;8.20;99.90;;;;;;4929287;29;20285;-74
2023/12/16 11:00:40;;;;;;;3.53;3.33;;;8.20;99.90;;;;;;4930877;29;20243;-74
2023/12/16 11:03:13;;;;;;;6.80;3.95;;;8.20;99.90;;;;;;4930265;29;20245;-74
2023/12/16 11:05:46;;;;;;;6.40;3.88;;;8.20;99.90;;;;;;4930264;29;20216;-74
2023/12/16 11:08:13;;;;;;;8.25;3.55;;;8.20;99.90;;;;;;4930770;29;20218;-74
2023/12/16 11:10:40;;;;;;;4.30;3.80;;;8.20;99.90;;;;;;4951074;23;20596;-71
2023/12/16 11:13:08;;;;;;;8.05;4.25;;;8.20;99.90;;;;;;4944439;29;20218;-71
2023/12/16 11:15:36;;;;;;;7.65;4.50;;;8.20;99.90;;;;;;4946494;29;20241;-72
2023/12/16 11:18:12;;;;;;;9.23;4.75;;;8.20;99.90;;;;;;4947704;29;20214;-72
2023/12/16 11:20:41;;;;;;;6.38;4.50;;;8.20;99.90;;;;;;4931144;28;20241;-71
2023/12/16 11:23:10;;;;;;;4.07;3.88;;;8.20;99.90;;;;;;4930750;29;20231;-71
2023/12/16 11:25:37;;;;;;;7.80;5.10;;;8.20;99.90;;;;;;4930538;29;20215;-71
2023/12/16 11:28:07;;;;;;;4.45;4.13;;;8.20;99.90;;;;;;4928086;29;20210;-71
2023/12/16 11:30:34;;;;;;;7.15;4.68;;;8.20;99.90;;;;;;4933073;29;20628;-72
2023/12/16 11:33:03;;;;;;;5.80;4.13;;;8.20;99.90;;;;;;4930030;29;20209;-71
2023/12/16 11:35:47;;;;;;;7.65;5.47;;;8.10;99.90;;;;;;4929087;29;20260;-71
2023/12/16 11:38:41;;;;;;;6.30;4.07;;;8.20;99.90;;;;;;4929496;29;20206;-72
2023/12/16 11:41:08;;;;;;;9.70;4.45;;;8.20;99.90;;;;;;4916626;29;20260;-72
2023/12/16 11:43:49;;;;;;;8.35;5.20;;;8.20;99.90;;;;;;4925536;29;20206;-72
2023/12/16 11:46:38;;;;;;;6.97;4.72;;;8.20;99.90;;;;;;4927926;29;20578;-72
2023/12/16 11:49:10;;;;;;;8.73;5.68;;;8.20;99.90;;;;;;4928919;29;20210;-72
2023/12/16 11:51:38;;;;;;;5.50;4.70;;;8.20;99.90;;;;;;4926885;29;20226;-71
2023/12/16 11:54:05;;;;;;;5.97;4.60;;;8.20;99.90;;;;;;4928296;29;20648;-70
2023/12/16 11:56:33;;;;;;;5.70;5.30;;;8.20;99.90;;;;;;4929020;29;20222;-71
2023/12/16 11:59:00;;;;;;;5.40;3.92;;;8.30;99.90;;;;;;4926508;29;20218;-71
2023/12/16 12:01:27;;;;;;;5.60;4.85;;;8.30;99.90;;;;;;4927573;29;20237;-72
2023/12/16 12:03:54;;;;;;;7.93;5.88;;;8.30;99.90;;;;;;4929888;29;20273;-71
2023/12/16 12:06:23;;;;;;;5.78;4.30;;;8.20;99.90;;;;;;4922357;29;20229;-71
2023/12/16 12:08:50;;;;;;;6.53;5.13;;;8.20;99.90;;;;;;4930418;29;20216;-71
2023/12/16 12:11:18;;;;;;;11.38;4.78;;;8.20;99.90;;;;;;4930801;29;20325;-70
2023/12/16 12:13:45;;;;;;;6.18;4.95;;;8.20;99.90;;;;;;4929253;29;20207;-71
2023/12/16 12:16:14;;;;;;;8.45;4.93;;;8.20;99.90;;;;;;4928056;29;20658;-71
2023/12/16 12:18:41;;;;;;;4.82;4.43;;;8.20;99.90;;;;;;4928351;29;20697;-70
2023/12/16 12:21:09;;;;;;;8.63;5.15;;;8.10;99.90;;;;;;4925000;29;20548;-71
2023/12/16 12:23:38;;;;;;;5.30;4.70;;;8.10;99.90;;;;;;4927718;29;20246;-71
2023/12/16 12:26:05;;;;;;;4.53;3.90;;;8.10;99.90;;;;;;4927866;29;20570;-71
2023/12/16 12:28:32;;;;;;;5.28;4.88;;;8.10;99.90;;;;;;4926988;29;20235;-71
2023/12/16 12:31:04;;;;;;;6.03;5.25;;;8.10;99.90;;;;;;4924828;29;20321;-71
2023/12/16 12:33:31;;;;;;;6.25;4.85;;;8.10;99.90;;;;;;4929648;29;20638;-71
2023/12/16 12:35:58;;;;;;;8.25;4.70;;;8.10;99.90;;;;;;4922836;29;20217;-71
2023/12/16 12:38:25;;;;;;;6.32;4.20;;;8.10;99.90;;;;;;4930430;29;20202;-71
2023/12/16 12:41:01;;;;;;;3.88;3.63;;;8.10;99.90;;;;;;4932455;29;20237;-71
2023/12/16 12:43:29;;;;;;;5.35;4.82;;;8.10;99.90;;;;;;4927574;29;20233;-70
2023/12/16 12:46:06;;;;;;;10.07;5.07;;;8.10;99.90;;;;;;4925260;29;20302;-70
2023/12/16 12:48:33;;;;;;;4.85;4.35;;;8.10;99.90;;;;;;4919103;29;20734;-71
2023/12/16 12:51:03;;;;;;;7.88;4.30;;;8.10;99.90;;;;;;4927404;29;20252;-71
2023/12/16 12:53:30;;;;;;;5.68;5.10;;;8.10;99.90;;;;;;4929415;29;20216;-70
2023/12/16 12:55:57;;;;;;;6.70;4.75;;;8.10;99.90;;;;;;4932741;29;20210;-70
2023/12/16 12:58:25;;;;;;;5.57;5.13;;;8.10;99.90;;;;;;4932642;29;20261;-71
2023/12/16 13:00:53;;;;;;;5.38;4.88;;;8.10;99.90;;;;;;4935066;29;20245;-71
2023/12/16 13:03:20;;;;;;;6.13;4.07;;;8.10;99.90;;;;;;4932976;29;20274;-72
2023/12/16 13:05:46;;;;;;;6.28;5.78;;;8.10;99.90;;;;;;4929199;29;20215;-71
2023/12/16 13:08:13;;;;;;;8.10;6.32;;;8.20;99.90;;;;;;4931082;29;20214;-72
2023/12/16 13:10:40;;;;;;;8.85;5.90;;;8.10;99.90;;;;;;4925865;29;20241;-71
2023/12/16 13:13:07;;;;;;;5.22;4.85;;;8.10;99.90;;;;;;4927447;29;20239;-72
2023/12/16 13:15:35;;;;;;;11.65;6.20;;;8.10;99.90;;;;;;4930505;29;20211;-70
2023/12/16 13:18:02;;;;;;;9.77;5.63;;;8.10;99.90;;;;;;4929497;29;20202;-72
2023/12/16 13:20:29;;;;;;;9.15;4.70;;;8.10;99.90;;;;;;4928846;29;20635;-71
2023/12/16 13:22:56;;;;;;;7.40;4.53;;;8.10;99.90;;;;;;4927625;29;20233;-71
2023/12/16 13:25:22;;;;;;;6.60;6.00;;;8.10;99.90;;;;;;4932495;29;20203;-71
2023/12/16 13:27:49;;;;;;;7.97;5.35;;;8.10;99.90;;;;;;4930782;29;20691;-71
2023/12/16 13:30:18;;;;;;;5.53;5.03;;;8.10;99.90;;;;;;4933669;29;20249;-71
2023/12/16 13:32:46;;;;;;;7.97;5.22;;;8.10;99.90;;;;;;4933527;29;20263;-71
2023/12/16 13:35:12;;;;;;;6.45;5.88;;;8.10;99.90;;;;;;4935929;29;20584;-71
2023/12/16 13:37:39;;;;;;;6.75;5.45;;;8.10;99.90;;;;;;4931400;29;20217;-71
2023/12/16 13:40:08;;;;;;;6.00;5.45;;;8.10;99.90;;;;;;4932784;29;20724;-71
2023/12/16 13:42:35;;;;;;;6.28;5.45;;;8.10;99.90;;;;;;4929961;29;20582;-71
2023/12/16 13:45:04;;;;;;;6.35;4.97;;;8.10;99.90;;;;;;4924064;29;20539;-71
2023/12/16 13:47:30;;;;;;;6.10;5.60;;;8.10;99.90;;;;;;4932872;29;20237;-71
2023/12/16 13:49:58;;;;;;;5.45;4.95;;;8.10;99.90;;;;;;4933758;29;20237;-71
2023/12/16 13:52:25;;;;;;;5.18;4.70;;;8.10;99.90;;;;;;4928160;29;20589;-71
2023/12/16 13:54:52;;;;;;;5.03;4.50;;;8.10;99.90;;;;;;4928097;29;20207;-71
2023/12/16 13:57:18;;;;;;;4.10;3.75;;;8.20;99.90;;;;;;4935578;29;20209;-72
2023/12/16 13:59:45;;;;;;;5.15;4.63;;;8.20;99.90;;;;;;4926965;29;20321;-71
2023/12/16 14:02:12;;;;;;;5.32;4.43;;;8.20;99.90;;;;;;4930502;29;20677;-71
2023/12/16 14:04:39;;;;;;;4.32;4.03;;;8.20;99.90;;;;;;4926979;29;20206;-70
2023/12/16 14:07:07;;;;;;;5.45;4.97;;;8.20;99.90;;;;;;4926605;29;20238;-71
2023/12/16 14:09:33;;;;;;;6.63;5.38;;;8.20;99.90;;;;;;4924185;29;20658;-71
2023/12/16 14:12:00;;;;;;;5.28;4.57;;;8.20;99.90;;;;;;4925710;29;20659;-70
2023/12/16 14:14:27;;;;;;;6.35;4.32;;;8.20;99.90;;;;;;4935008;29;20578;-70
2023/12/16 14:16:53;;;;;;;6.65;4.85;;;8.30;99.90;;;;;;4921006;29;20222;-72
2023/12/16 14:19:20;;;;;;;5.68;5.22;;;8.20;99.90;;;;;;4925372;29;20215;-71
2023/12/16 14:21:47;;;;;;;7.75;4.88;;;8.20;99.90;;;;;;4923134;29;20218;-71
2023/12/16 14:24:15;;;;;;;6.30;5.80;;;8.20;99.90;;;;;;4925268;29;20246;-71
2023/12/16 14:26:41;;;;;;;6.28;5.78;;;8.20;99.90;;;;;;4932014;29;20207;-71
2023/12/16 14:29:08;;;;;;;5.95;5.32;;;8.20;99.90;;;;;;4935117;29;20211;-72
2023/12/16 14:31:34;;;;;;;7.20;6.13;;;8.20;99.90;;;;;;4929242;29;20615;-71
2023/12/16 14:34:01;;;;;;;10.23;5.35;;;8.20;99.90;;;;;;4931012;29;20894;-72
2023/12/16 14:36:30;;;;;;;5.60;5.10;;;8.20;99.90;;;;;;4929279;29;20206;-72
2023/12/16 14:38:56;;;;;;;6.65;5.32;;;8.20;99.90;;;;;;4931585;29;20207;-72
2023/12/16 14:41:24;;;;;;;5.88;5.38;;;8.20;99.90;;;;;;4928756;29;20517;-72
2023/12/16 14:43:51;;;;;;;4.93;4.53;;;8.20;99.90;;;;;;4931417;29;20236;-71
2023/12/16 14:46:18;;;;;;;6.95;5.82;;;8.20;99.90;;;;;;4930769;29;20214;-71
2023/12/16 14:48:45;;;;;;;7.32;5.13;;;8.20;99.90;;;;;;4934408;29;20309;-71
2023/12/16 14:51:12;;;;;;;6.20;5.45;;;8.20;99.90;;;;;;4930638;29;20227;-71
2023/12/16 14:53:38;;;;;;;7.90;5.70;;;8.20;99.90;;;;;;4922554;29;20213;-71
2023/12/16 14:56:06;;;;;;;8.45;6.15;;;8.20;99.90;;;;;;4934170;29;20213;-71
2023/12/16 14:58:34;;;;;;;5.65;5.13;;;8.20;99.90;;;;;;4928426;29;20204;-71
2023/12/16 15:01:01;;;;;;;4.85;4.55;;;8.30;99.90;;;;;;4927987;29;20227;-72
2023/12/16 15:03:27;;;;;;;5.63;4.85;;;8.30;99.90;;;;;;4930638;29;20318;-71
2023/12/16 15:05:54;;;;;;;6.70;6.10;;;8.30;99.90;;;;;;4922509;29;20218;-71
2023/12/16 15:08:22;;;;;;;6.03;5.43;;;8.30;99.90;;;;;;4929657;29;20206;-71
2023/12/16 15:10:48;;;;;;;6.88;6.15;;;8.30;99.90;;;;;;4931525;29;20245;-71
2023/12/16 15:13:15;;;;;;;7.03;6.43;;;8.30;99.90;;;;;;4931683;29;20637;-71
2023/12/16 15:15:44;;;;;;;7.53;5.90;;;8.30;99.90;;;;;;4925679;29;20212;-71
2023/12/16 15:18:11;;;;;;;7.53;6.15;;;8.30;99.90;;;;;;4924988;29;20210;-71
2023/12/16 15:20:38;;;;;;;6.88;6.20;;;8.30;99.90;;;;;;4927927;29;20242;-71
2023/12/16 15:23:05;;;;;;;6.03;5.53;;;8.30;99.90;;;;;;4933642;29;20230;-71
2023/12/16 15:25:32;;;;;;;7.75;5.90;;;8.30;99.90;;;;;;4933865;29;20281;-71
2023/12/16 15:27:58;;;;;;;6.45;5.88;;;8.30;99.90;;;;;;4931602;29;20568;-71
2023/12/16 15:30:25;;;;;;;5.97;5.07;;;8.30;99.90;;;;;;4931504;29;20234;-71
2023/12/16 15:32:53;;;;;;;9.98;4.90;;;8.30;99.90;;;;;;4922877;29;20619;-72
2023/12/16 15:35:20;;;;;;;11.73;5.97;;;8.30;99.90;;;;;;4930386;29;20202;-72
2023/12/16 15:37:46;;;;;;;5.18;4.50;;;8.40;99.90;;;;;;4933383;29;20585;-72
2023/12/16 15:40:13;;;;;;;6.03;5.43;;;8.40;99.90;;;;;;4933900;29;20241;-72
2023/12/16 15:42:40;;;;;;;6.97;5.25;;;8.40;99.90;;;;;;4925683;29;20211;-72
2023/12/16 15:45:08;;;;;;;12.35;5.95;;;8.40;99.90;;;;;;4926858;29;20575;-71
2023/12/16 15:47:35;;;;;;;8.10;6.20;;;8.40;99.90;;;;;;4929912;29;20659;-72
2023/12/16 15:50:04;;;;;;;5.75;5.13;;;8.40;99.90;;;;;;4932990;29;20225;-72
2023/12/16 15:52:32;;;;;;;6.50;5.30;;;8.40;99.90;;;;;;4928680;29;20291;-72
2023/12/16 15:54:58;;;;;;;5.75;5.20;;;8.50;99.90;;;;;;4933189;29;20220;-72
2023/12/16 15:57:26;;;;;;;7.18;6.07;;;8.50;99.90;;;;;;4928149;29;20206;-73
2023/12/16 15:59:53;;;;;;;4.68;4.38;;;8.50;99.90;;;;;;4922383;29;20621;-72
2023/12/16 16:02:20;;;;;;;6.07;4.97;;;8.40;99.90;;;;;;4929728;29;20206;-73
2023/12/16 16:04:47;;;;;;;6.78;5.38;;;8.50;99.90;;;;;;4925893;29;20253;-73
2023/12/16 16:07:15;;;;;;;6.97;5.60;;;8.50;99.90;;;;;;4921690;29;20222;-72
2023/12/16 16:09:41;;;;;;;6.53;5.93;;;8.50;99.90;;;;;;4918322;29;20227;-73
2023/12/16 16:12:09;;;;;;;8.77;6.45;;;8.50;99.90;;;;;;4929444;29;20213;-73
2023/12/16 16:14:35;;;;;;;8.40;5.60;;;8.50;99.90;;;;;;4923530;29;20328;-72
2023/12/16 16:17:02;;;;;;;5.68;5.18;;;8.50;99.90;;;;;;4932081;29;20225;-71
2023/12/16 16:19:29;;;;;;;6.88;5.68;;;8.50;99.90;;;;;;4926150;29;20202;-72
2023/12/16 16:21:56;;;;;;;10.07;5.90;;;8.50;99.90;;;;;;4928678;29;20224;-71
2023/12/16 16:24:24;;;;;;;8.65;6.13;;;8.50;99.90;;;;;;4922915;29;20246;-71
2023/12/16 16:26:51;;;;;;;8.63;5.78;;;8.60;99.90;;;;;;4926362;29;20218;-72
2023/12/16 16:29:18;;;;;;;6.00;5.18;;;8.50;99.90;;;;;;4923673;29;20234;-71
2023/12/16 16:31:45;;;;;;;7.82;5.18;;;8.50;99.90;;;;;;4930930;29;20214;-71
2023/12/16 16:34:11;;;;;;;4.72;4.30;;;8.50;99.90;;;;;;4927581;29;20225;-71
2023/12/16 16:36:38;;;;;;;7.00;5.63;;;8.50;99.90;;;;;;4927587;29;20213;-71
2023/12/16 16:39:05;;;;;;;5.50;4.35;;;8.50;99.90;;;;;;4919259;29;20692;-72
2023/12/16 16:41:33;;;;;;;10.55;5.70;;;8.50;99.90;;;;;;4926625;29;20230;-72
2023/12/16 16:44:00;;;;;;;6.35;5.22;;;8.50;99.90;;;;;;4926820;29;20231;-72
2023/12/16 16:46:28;;;;;;;7.78;6.97;;;8.50;99.90;;;;;;4927137;29;20346;-72
2023/12/16 16:48:54;;;;;;;12.05;7.00;;;8.60;99.90;;;;;;4926858;29;20210;-72
2023/12/16 16:51:21;;;;;;;7.72;6.00;;;8.60;99.90;;;;;;4925075;29;20241;-71
2023/12/16 16:53:48;;;;;;;11.40;6.05;;;8.60;99.90;;;;;;4928130;29;20210;-72
2023/12/16 16:56:15;;;;;;;6.80;6.15;;;8.60;99.90;;;;;;4918729;29;20219;-72
2023/12/16 16:58:43;;;;;;;8.32;6.25;;;8.50;99.90;;;;;;4926502;29;20215;-72
2023/12/16 17:01:10;;;;;;;7.97;7.18;;;8.50;99.90;;;;;;4927759;29;20230;-72
2023/12/16 17:03:37;;;;;;;10.55;6.95;;;8.60;99.90;;;;;;4932547;29;20261;-72
2023/12/16 17:06:04;;;;;;;13.88;7.57;;;8.60;99.90;;;;;;4926592;29;20208;-72
2023/12/16 17:08:31;;;;;;;9.68;6.47;;;8.60;99.90;;;;;;4932043;29;20299;-72
2023/12/16 17:10:59;;;;;;;10.48;6.53;;;8.60;99.90;;;;;;4923912;29;20339;-72
2023/12/16 17:13:26;;;;;;;9.43;6.47;;;8.60;99.90;;;;;;4922475;29;20587;-72
2023/12/16 17:15:54;;;;;;;7.25;6.40;;;8.50;99.90;;;;;;4926113;29;20301;-72
2023/12/16 17:18:23;;;;;;;8.57;6.25;;;8.50;99.90;;;;;;4920449;29;20203;-72
2023/12/16 17:20:50;;;;;;;7.70;5.95;;;8.50;99.90;;;;;;4922865;29;20584;-72
2023/12/16 17:23:17;;;;;;;7.50;6.55;;;8.50;99.90;;;;;;4924762;29;20206;-72
2023/12/16 17:25:43;;;;;;;11.30;7.38;;;8.50;99.90;;;;;;4918697;29;20222;-72
2023/12/16 17:28:10;;;;;;;8.15;6.05;;;8.50;99.90;;;;;;4916862;29;20262;-72
2023/12/16 17:30:37;;;;;;;10.25;6.72;;;8.60;99.90;;;;;;4929742;29;20252;-72
2023/12/16 17:33:05;;;;;;;8.65;7.72;;;8.60;99.90;;;;;;4932071;29;20210;-72
2023/12/16 17:35:32;;;;;;;10.38;6.75;;;8.60;99.90;;;;;;4928226;29;20233;-72
2023/12/16 17:37:59;;;;;;;11.50;6.80;;;8.60;99.90;;;;;;4922518;29;20736;-72
2023/12/16 17:40:26;;;;;;;7.47;6.53;;;8.60;99.90;;;;;;4930055;29;20234;-72
2023/12/16 17:42:52;;;;;;;10.63;7.65;;;8.60;99.90;;;;;;4927903;29;20241;-73
2023/12/16 17:45:19;;;;;;;12.38;7.85;;;8.60;99.90;;;;;;4929358;29;20227;-72
2023/12/16 17:47:47;;;;;;;10.55;6.30;;;8.60;99.90;;;;;;4927912;29;20285;-72
2023/12/16 17:50:15;;;;;;;7.20;6.32;;;8.60;99.90;;;;;;4925967;29;20757;-73
2023/12/16 17:52:42;;;;;;;7.60;6.22;;;8.60;99.90;;;;;;4924362;29;20214;-72
2023/12/16 17:55:11;;;;;;;9.77;6.45;;;8.60;99.90;;;;;;4925169;29;20218;-72
2023/12/16 17:57:39;;;;;;;9.73;6.78;;;8.60;99.90;;;;;;4928126;29;20226;-72